sensor_id;sensor_type;location;lat;lon;timestamp;pressure;altitude;pressure_sealevel;temperature;humidity
67430;BME280;54298;52.076;5.264;2023-04-19T00:00:26;102711.99999999999;;;10.59;65.49
67430;BME280;54298;52.076;5.264;2023-04-19T00:02:02;102715.00000000001;;;10.45;65.97
67430;BME280;54298;52.076;5.264;2023-04-19T00:03:38;102705.0;;;10.58;65.52
67430;BME280;54298;52.076;5.264;2023-04-19T00:06:51;102703.0;;;10.52;65.72
67430;BME280;54298;52.076;5.264;2023-04-19T00:08:27;102704.0;;;10.62;65.53
67430;BME280;54298;52.076;5.264;2023-04-19T00:10:05;102704.0;;;10.51;65.7
67430;BME280;54298;52.076;5.264;2023-04-19T00:13:18;102701.0;;;10.64;65.61
67430;BME280;54298;52.076;5.264;2023-04-19T00:14:54;102700.0;;;10.67;65.67
67430;BME280;54298;52.076;5.264;2023-04-19T00:16:30;102708.0;;;10.5;66.09
67430;BME280;54298;52.076;5.264;2023-04-19T00:18:06;102700.0;;;10.62;66.1
67430;BME280;54298;52.076;5.264;2023-04-19T00:21:19;102700.0;;;10.6;66.33
67430;BME280;54298;52.076;5.264;2023-04-19T00:22:55;102697.0;;;10.67;66.35
67430;BME280;54298;52.076;5.264;2023-04-19T00:24:31;102701.0;;;10.68;66.58
67430;BME280;54298;52.076;5.264;2023-04-19T00:27:43;102698.0;;;10.73;66.36
67430;BME280;54298;52.076;5.264;2023-04-19T00:29:19;102700.0;;;10.76;66.67
67430;BME280;54298;52.076;5.264;2023-04-19T00:30:56;102698.0;;;10.73;66.55
67430;BME280;54298;52.076;5.264;2023-04-19T00:34:09;102691.00000000001;;;10.66;67.27
67430;BME280;54298;52.076;5.264;2023-04-19T00:35:45;102692.0;;;10.8;66.74
67430;BME280;54298;52.076;5.264;2023-04-19T00:37:21;102692.0;;;10.63;67.0
67430;BME280;54298;52.076;5.264;2023-04-19T00:40:35;102688.00000000001;;;10.75;66.88
67430;BME280;54298;52.076;5.264;2023-04-19T00:42:11;102691.00000000001;;;10.65;67.58
67430;BME280;54298;52.076;5.264;2023-04-19T00:43:47;102688.00000000001;;;10.64;67.47
67430;BME280;54298;52.076;5.264;2023-04-19T00:45:24;102682.0;;;10.75;67.02
67430;BME280;54298;52.076;5.264;2023-04-19T00:48:37;102680.0;;;10.38;68.1
67430;BME280;54298;52.076;5.264;2023-04-19T00:50:13;102681.0;;;10.54;67.8
67430;BME280;54298;52.076;5.264;2023-04-19T00:51:50;102686.99999999999;;;10.52;67.99
67430;BME280;54298;52.076;5.264;2023-04-19T00:55:03;102680.0;;;10.44;68.14
67430;BME280;54298;52.076;5.264;2023-04-19T00:56:40;102684.99999999999;;;10.25;69.03
67430;BME280;54298;52.076;5.264;2023-04-19T00:58:15;102682.0;;;10.3;68.77
67430;BME280;54298;52.076;5.264;2023-04-19T01:01:30;102682.0;;;10.28;68.61
67430;BME280;54298;52.076;5.264;2023-04-19T01:03:06;102681.0;;;10.33;68.38
67430;BME280;54298;52.076;5.264;2023-04-19T01:04:42;102676.0;;;10.15;69.11
67430;BME280;54298;52.076;5.264;2023-04-19T01:06:18;102680.0;;;10.15;68.86
67430;BME280;54298;52.076;5.264;2023-04-19T01:09:30;102679.0;;;10.13;68.81
67430;BME280;54298;52.076;5.264;2023-04-19T01:11:06;102679.0;;;9.97;69.66
67430;BME280;54298;52.076;5.264;2023-04-19T01:12:43;102681.0;;;10.11;69.5
67430;BME280;54298;52.076;5.264;2023-04-19T01:15:56;102676.0;;;10.07;69.48
67430;BME280;54298;52.076;5.264;2023-04-19T01:17:33;102682.0;;;10.01;69.88
67430;BME280;54298;52.076;5.264;2023-04-19T01:19:09;102679.0;;;9.97;69.97
67430;BME280;54298;52.076;5.264;2023-04-19T01:22:21;102682.0;;;9.86;70.24
67430;BME280;54298;52.076;5.264;2023-04-19T01:23:57;102684.99999999999;;;9.96;70.05
67430;BME280;54298;52.076;5.264;2023-04-19T01:25:34;102680.0;;;10.06;69.72
67430;BME280;54298;52.076;5.264;2023-04-19T01:27:10;102680.0;;;9.91;70.19
67430;BME280;54298;52.076;5.264;2023-04-19T01:30:23;102682.0;;;9.98;69.94
67430;BME280;54298;52.076;5.264;2023-04-19T01:32:00;102686.99999999999;;;9.94;70.59
67430;BME280;54298;52.076;5.264;2023-04-19T01:33:36;102683.0;;;9.98;70.27
67430;BME280;54298;52.076;5.264;2023-04-19T01:36:48;102679.0;;;9.97;70.19
67430;BME280;54298;52.076;5.264;2023-04-19T01:38:24;102678.0;;;10.02;70.05
67430;BME280;54298;52.076;5.264;2023-04-19T01:40:01;102675.0;;;10.08;70.08
67430;BME280;54298;52.076;5.264;2023-04-19T01:43:15;102679.0;;;10.07;69.84
67430;BME280;54298;52.076;5.264;2023-04-19T01:44:52;102677.0;;;10.15;69.69
67430;BME280;54298;52.076;5.264;2023-04-19T01:46:28;102676.0;;;10.0;70.08
67430;BME280;54298;52.076;5.264;2023-04-19T01:48:04;102676.0;;;10.06;70.03
67430;BME280;54298;52.076;5.264;2023-04-19T01:51:17;102678.0;;;10.14;69.58
67430;BME280;54298;52.076;5.264;2023-04-19T01:52:54;102681.0;;;10.15;69.52
67430;BME280;54298;52.076;5.264;2023-04-19T01:54:30;102682.0;;;10.06;70.14
67430;BME280;54298;52.076;5.264;2023-04-19T01:57:42;102681.0;;;9.94;70.41
67430;BME280;54298;52.076;5.264;2023-04-19T01:59:19;102675.0;;;10.09;70.31
67430;BME280;54298;52.076;5.264;2023-04-19T02:00:55;102676.0;;;10.16;70.08
67430;BME280;54298;52.076;5.264;2023-04-19T02:04:08;102674.0;;;10.17;69.91
67430;BME280;54298;52.076;5.264;2023-04-19T02:05:45;102682.0;;;10.22;70.06
67430;BME280;54298;52.076;5.264;2023-04-19T02:07:21;102679.0;;;10.02;70.73
67430;BME280;54298;52.076;5.264;2023-04-19T02:08:57;102675.0;;;10.18;70.41
67430;BME280;54298;52.076;5.264;2023-04-19T02:12:09;102678.0;;;10.27;70.02
67430;BME280;54298;52.076;5.264;2023-04-19T02:13:46;102675.0;;;10.22;70.14
67430;BME280;54298;52.076;5.264;2023-04-19T02:15:22;102672.0;;;10.17;70.19
67430;BME280;54298;52.076;5.264;2023-04-19T02:18:34;102668.0;;;10.31;69.94
67430;BME280;54298;52.076;5.264;2023-04-19T02:20:10;102672.0;;;10.23;70.31
67430;BME280;54298;52.076;5.264;2023-04-19T02:21:46;102667.0;;;10.31;70.23
67430;BME280;54298;52.076;5.264;2023-04-19T02:24:59;102664.00000000001;;;10.28;69.95
67430;BME280;54298;52.076;5.264;2023-04-19T02:26:36;102668.0;;;10.36;69.92
67430;BME280;54298;52.076;5.264;2023-04-19T02:28:12;102672.0;;;10.18;70.61
67430;BME280;54298;52.076;5.264;2023-04-19T02:31:24;102669.0;;;10.35;69.83
67430;BME280;54298;52.076;5.264;2023-04-19T02:33:00;102676.0;;;10.45;69.86
67430;BME280;54298;52.076;5.264;2023-04-19T02:34:36;102675.0;;;10.44;69.86
67430;BME280;54298;52.076;5.264;2023-04-19T02:36:12;102677.0;;;10.56;69.52
67430;BME280;54298;52.076;5.264;2023-04-19T02:39:25;102676.0;;;10.54;69.47
67430;BME280;54298;52.076;5.264;2023-04-19T02:41:02;102679.0;;;10.38;69.99
67430;BME280;54298;52.076;5.264;2023-04-19T02:42:38;102680.0;;;10.46;69.94
67430;BME280;54298;52.076;5.264;2023-04-19T02:45:50;102681.0;;;10.53;69.61
67430;BME280;54298;52.076;5.264;2023-04-19T02:47:26;102680.0;;;10.45;70.24
67430;BME280;54298;52.076;5.264;2023-04-19T02:49:02;102683.0;;;10.44;69.99
67430;BME280;54298;52.076;5.264;2023-04-19T02:52:15;102683.99999999999;;;10.53;69.94
67430;BME280;54298;52.076;5.264;2023-04-19T02:53:51;102681.0;;;10.44;70.3
67430;BME280;54298;52.076;5.264;2023-04-19T02:55:27;102679.0;;;10.4;70.45
67430;BME280;54298;52.076;5.264;2023-04-19T02:57:03;102673.0;;;10.32;70.69
67430;BME280;54298;52.076;5.264;2023-04-19T03:00:16;102677.0;;;10.5;70.27
67430;BME280;54298;52.076;5.264;2023-04-19T03:01:52;102682.0;;;10.49;70.48
67430;BME280;54298;52.076;5.264;2023-04-19T03:03:28;102679.0;;;10.5;70.38
67430;BME280;54298;52.076;5.264;2023-04-19T03:06:42;102679.0;;;10.35;70.77
67430;BME280;54298;52.076;5.264;2023-04-19T03:08:18;102678.0;;;10.4;70.83
67430;BME280;54298;52.076;5.264;2023-04-19T03:09:54;102680.0;;;10.49;70.61
67430;BME280;54298;52.076;5.264;2023-04-19T03:13:06;102677.0;;;10.37;70.97
67430;BME280;54298;52.076;5.264;2023-04-19T03:14:42;102681.0;;;10.63;70.41
67430;BME280;54298;52.076;5.264;2023-04-19T03:16:18;102678.0;;;10.56;70.27
67430;BME280;54298;52.076;5.264;2023-04-19T03:19:31;102675.0;;;10.64;70.16
67430;BME280;54298;52.076;5.264;2023-04-19T03:21:07;102677.0;;;10.68;69.95
67430;BME280;54298;52.076;5.264;2023-04-19T03:22:43;102676.0;;;10.71;69.64
67430;BME280;54298;52.076;5.264;2023-04-19T03:24:19;102673.0;;;10.67;69.78
67430;BME280;54298;52.076;5.264;2023-04-19T03:27:38;102675.0;;;10.77;69.69
67430;BME280;54298;52.076;5.264;2023-04-19T03:29:15;102674.0;;;10.67;70.03
67430;BME280;54298;52.076;5.264;2023-04-19T03:30:51;102676.0;;;10.53;70.27
67430;BME280;54298;52.076;5.264;2023-04-19T03:34:04;102675.0;;;10.8;69.59
67430;BME280;54298;52.076;5.264;2023-04-19T03:35:40;102673.0;;;10.82;69.52
67430;BME280;54298;52.076;5.264;2023-04-19T03:37:16;102672.0;;;10.85;69.58
67430;BME280;54298;52.076;5.264;2023-04-19T03:40:29;102670.0;;;10.83;69.52
67430;BME280;54298;52.076;5.264;2023-04-19T03:42:05;102668.0;;;10.86;69.55
67430;BME280;54298;52.076;5.264;2023-04-19T03:43:41;102667.0;;;10.74;69.8
67430;BME280;54298;52.076;5.264;2023-04-19T03:45:18;102672.0;;;10.71;69.61
67430;BME280;54298;52.076;5.264;2023-04-19T03:48:30;102663.00000000001;;;10.83;69.52
67430;BME280;54298;52.076;5.264;2023-04-19T03:50:07;102672.0;;;10.65;69.89
67430;BME280;54298;52.076;5.264;2023-04-19T03:51:43;102671.0;;;10.68;69.94
67430;BME280;54298;52.076;5.264;2023-04-19T03:54:55;102670.0;;;10.7;70.08
67430;BME280;54298;52.076;5.264;2023-04-19T03:56:31;102665.00000000001;;;10.77;70.03
67430;BME280;54298;52.076;5.264;2023-04-19T03:58:07;102664.00000000001;;;10.92;69.47
67430;BME280;54298;52.076;5.264;2023-04-19T04:01:20;102665.00000000001;;;10.67;69.92
67430;BME280;54298;52.076;5.264;2023-04-19T04:02:57;102668.0;;;10.67;70.05
67430;BME280;54298;52.076;5.264;2023-04-19T04:04:33;102669.0;;;10.74;69.61
67430;BME280;54298;52.076;5.264;2023-04-19T04:06:09;102666.00000000001;;;10.5;70.63
67430;BME280;54298;52.076;5.264;2023-04-19T04:09:21;102669.0;;;10.61;70.3
67430;BME280;54298;52.076;5.264;2023-04-19T04:10:57;102667.0;;;10.54;70.31
67430;BME280;54298;52.076;5.264;2023-04-19T04:12:33;102666.00000000001;;;10.6;70.11
67430;BME280;54298;52.076;5.264;2023-04-19T04:15:46;102668.0;;;10.49;70.25
67430;BME280;54298;52.076;5.264;2023-04-19T04:17:22;102665.00000000001;;;10.31;70.95
67430;BME280;54298;52.076;5.264;2023-04-19T04:18:58;102658.0;;;10.34;70.83
67430;BME280;54298;52.076;5.264;2023-04-19T04:22:10;102664.00000000001;;;10.38;70.55
67430;BME280;54298;52.076;5.264;2023-04-19T04:23:46;102666.00000000001;;;10.48;69.95
67430;BME280;54298;52.076;5.264;2023-04-19T04:25:23;102668.0;;;10.39;70.38
67430;BME280;54298;52.076;5.264;2023-04-19T04:28:35;102666.00000000001;;;10.3;70.74
67430;BME280;54298;52.076;5.264;2023-04-19T04:30:11;102664.00000000001;;;10.26;71.05
67430;BME280;54298;52.076;5.264;2023-04-19T04:31:47;102667.0;;;10.22;70.88
67430;BME280;54298;52.076;5.264;2023-04-19T04:33:23;102675.0;;;10.26;70.62
67430;BME280;54298;52.076;5.264;2023-04-19T04:36:36;102676.0;;;10.27;70.16
67430;BME280;54298;52.076;5.264;2023-04-19T04:38:11;102671.0;;;10.13;70.78
67430;BME280;54298;52.076;5.264;2023-04-19T04:39:47;102670.0;;;10.14;70.7
67430;BME280;54298;52.076;5.264;2023-04-19T04:42:58;102673.0;;;10.03;70.94
67430;BME280;54298;52.076;5.264;2023-04-19T04:44:33;102672.0;;;10.06;70.77
67430;BME280;54298;52.076;5.264;2023-04-19T04:46:09;102669.0;;;10.08;70.56
67430;BME280;54298;52.076;5.264;2023-04-19T04:49:22;102670.0;;;10.18;70.11
67430;BME280;54298;52.076;5.264;2023-04-19T04:50:58;102673.0;;;10.03;70.47
67430;BME280;54298;52.076;5.264;2023-04-19T04:52:33;102669.0;;;10.0;70.7
67430;BME280;54298;52.076;5.264;2023-04-19T04:55:44;102671.0;;;9.83;70.91
67430;BME280;54298;52.076;5.264;2023-04-19T04:57:21;102672.0;;;9.91;70.66
67430;BME280;54298;52.076;5.264;2023-04-19T04:58:57;102672.0;;;9.97;70.33
67430;BME280;54298;52.076;5.264;2023-04-19T05:00:32;102676.0;;;9.85;70.5
67430;BME280;54298;52.076;5.264;2023-04-19T05:03:44;102676.0;;;9.89;70.52
67430;BME280;54298;52.076;5.264;2023-04-19T05:05:20;102674.0;;;9.98;70.02
67430;BME280;54298;52.076;5.264;2023-04-19T05:06:55;102668.0;;;9.96;69.92
67430;BME280;54298;52.076;5.264;2023-04-19T05:10:07;102676.0;;;9.86;70.13
67430;BME280;54298;52.076;5.264;2023-04-19T05:11:43;102679.0;;;9.89;69.91
67430;BME280;54298;52.076;5.264;2023-04-19T05:13:20;102679.0;;;9.98;69.59
67430;BME280;54298;52.076;5.264;2023-04-19T05:16:32;102677.0;;;9.97;69.41
67430;BME280;54298;52.076;5.264;2023-04-19T05:18:08;102679.0;;;9.89;69.95
67430;BME280;54298;52.076;5.264;2023-04-19T05:19:44;102688.00000000001;;;9.81;69.8
67430;BME280;54298;52.076;5.264;2023-04-19T05:22:57;102686.99999999999;;;9.85;70.06
67430;BME280;54298;52.076;5.264;2023-04-19T05:24:33;102688.00000000001;;;9.91;69.86
67430;BME280;54298;52.076;5.264;2023-04-19T05:26:10;102679.0;;;9.89;69.86
67430;BME280;54298;52.076;5.264;2023-04-19T05:27:46;102683.99999999999;;;9.81;69.56
67430;BME280;54298;52.076;5.264;2023-04-19T05:30:58;102693.0;;;9.81;69.66
67430;BME280;54298;52.076;5.264;2023-04-19T05:32:34;102692.0;;;9.9;69.61
67430;BME280;54298;52.076;5.264;2023-04-19T05:34:10;102689.00000000001;;;9.56;69.69
67430;BME280;54298;52.076;5.264;2023-04-19T05:37:22;102693.0;;;9.69;69.34
67430;BME280;54298;52.076;5.264;2023-04-19T05:38:59;102692.0;;;9.75;68.95
67430;BME280;54298;52.076;5.264;2023-04-19T05:40:35;102682.0;;;9.78;68.44
67430;BME280;54298;52.076;5.264;2023-04-19T05:43:47;102690.00000000001;;;9.64;68.58
67430;BME280;54298;52.076;5.264;2023-04-19T05:45:24;102689.00000000001;;;9.8;67.94
67430;BME280;54298;52.076;5.264;2023-04-19T05:47:01;102686.99999999999;;;9.81;68.03
67430;BME280;54298;52.076;5.264;2023-04-19T05:48:37;102690.00000000001;;;9.75;67.05
67430;BME280;54298;52.076;5.264;2023-04-19T05:51:49;102692.0;;;9.98;66.84
67430;BME280;54298;52.076;5.264;2023-04-19T05:53:26;102689.00000000001;;;9.85;67.14
67430;BME280;54298;52.076;5.264;2023-04-19T05:55:03;102692.0;;;10.03;66.42
67430;BME280;54298;52.076;5.264;2023-04-19T05:58:16;102692.0;;;10.01;66.47
67430;BME280;54298;52.076;5.264;2023-04-19T05:59:53;102691.00000000001;;;10.0;65.3
67430;BME280;54298;52.076;5.264;2023-04-19T06:01:29;102692.0;;;10.06;64.97
67430;BME280;54298;52.076;5.264;2023-04-19T06:04:44;102684.99999999999;;;9.83;64.78
67430;BME280;54298;52.076;5.264;2023-04-19T06:06:21;102689.00000000001;;;10.03;64.55
67430;BME280;54298;52.076;5.264;2023-04-19T06:07:58;102683.99999999999;;;10.14;63.81
67430;BME280;54298;52.076;5.264;2023-04-19T06:09:34;102680.0;;;10.02;63.68
67430;BME280;54298;52.076;5.264;2023-04-19T06:12:46;102680.0;;;10.05;62.43
67430;BME280;54298;52.076;5.264;2023-04-19T06:14:24;102674.0;;;10.03;62.3
67430;BME280;54298;52.076;5.264;2023-04-19T06:16:01;102681.0;;;10.18;61.13
67430;BME280;54298;52.076;5.264;2023-04-19T06:19:13;102682.0;;;10.19;60.82
67430;BME280;54298;52.076;5.264;2023-04-19T06:20:49;102688.00000000001;;;10.28;60.52
67430;BME280;54298;52.076;5.264;2023-04-19T06:22:27;102679.0;;;10.3;59.97
67430;BME280;54298;52.076;5.264;2023-04-19T06:25:41;102688.00000000001;;;10.26;60.57
67430;BME280;54298;52.076;5.264;2023-04-19T06:27:18;102683.0;;;10.35;59.5
67430;BME280;54298;52.076;5.264;2023-04-19T06:28:54;102684.99999999999;;;10.3;58.72
67430;BME280;54298;52.076;5.264;2023-04-19T06:30:30;102686.99999999999;;;10.33;58.22
67430;BME280;54298;52.076;5.264;2023-04-19T06:33:42;102691.00000000001;;;10.28;57.62
67430;BME280;54298;52.076;5.264;2023-04-19T06:35:18;102688.00000000001;;;10.43;58.6
67430;BME280;54298;52.076;5.264;2023-04-19T06:36:54;102683.99999999999;;;10.57;57.5
67430;BME280;54298;52.076;5.264;2023-04-19T06:40:08;102693.0;;;10.68;56.76
67430;BME280;54298;52.076;5.264;2023-04-19T06:41:44;102683.0;;;10.3;56.25
67430;BME280;54298;52.076;5.264;2023-04-19T06:43:20;102682.0;;;10.44;55.38
67430;BME280;54298;52.076;5.264;2023-04-19T06:46:32;102683.99999999999;;;10.55;54.74
67430;BME280;54298;52.076;5.264;2023-04-19T06:48:08;102688.00000000001;;;10.68;55.28
67430;BME280;54298;52.076;5.264;2023-04-19T06:49:44;102681.0;;;10.65;55.06
67430;BME280;54298;52.076;5.264;2023-04-19T06:51:20;102689.00000000001;;;10.72;53.86
67430;BME280;54298;52.076;5.264;2023-04-19T06:54:33;102683.99999999999;;;10.81;53.03
67430;BME280;54298;52.076;5.264;2023-04-19T06:56:09;102689.00000000001;;;10.76;52.34
67430;BME280;54298;52.076;5.264;2023-04-19T06:57:45;102692.0;;;10.86;50.98
67430;BME280;54298;52.076;5.264;2023-04-19T07:00:58;102684.99999999999;;;10.81;50.9
67430;BME280;54298;52.076;5.264;2023-04-19T07:02:35;102676.0;;;10.94;50.03
67430;BME280;54298;52.076;5.264;2023-04-19T07:04:11;102682.0;;;11.05;49.28
67430;BME280;54298;52.076;5.264;2023-04-19T07:07:24;102683.0;;;11.23;48.63
67430;BME280;54298;52.076;5.264;2023-04-19T07:09:00;102674.0;;;11.26;48.39
67430;BME280;54298;52.076;5.264;2023-04-19T07:10:37;102677.0;;;11.26;48.05
67430;BME280;54298;52.076;5.264;2023-04-19T07:13:50;102669.0;;;11.2;46.86
67430;BME280;54298;52.076;5.264;2023-04-19T07:15:26;102674.0;;;11.24;47.05
67430;BME280;54298;52.076;5.264;2023-04-19T07:17:02;102682.0;;;11.38;46.89
67430;BME280;54298;52.076;5.264;2023-04-19T07:18:39;102681.0;;;11.46;46.86
67430;BME280;54298;52.076;5.264;2023-04-19T07:21:51;102683.0;;;11.2;46.93
67430;BME280;54298;52.076;5.264;2023-04-19T07:23:27;102677.0;;;11.26;47.36
67430;BME280;54298;52.076;5.264;2023-04-19T07:25:04;102681.0;;;11.29;46.35
67430;BME280;54298;52.076;5.264;2023-04-19T07:28:17;102680.0;;;11.49;46.0
67430;BME280;54298;52.076;5.264;2023-04-19T07:29:53;102681.0;;;11.6;45.32
67430;BME280;54298;52.076;5.264;2023-04-19T07:31:29;102688.00000000001;;;11.56;45.45
67430;BME280;54298;52.076;5.264;2023-04-19T07:34:42;102691.00000000001;;;11.45;44.87
67430;BME280;54298;52.076;5.264;2023-04-19T07:36:18;102693.0;;;11.52;44.55
67430;BME280;54298;52.076;5.264;2023-04-19T07:37:54;102686.99999999999;;;11.55;44.86
67430;BME280;54298;52.076;5.264;2023-04-19T07:39:31;102692.0;;;11.57;43.48
67430;BME280;54298;52.076;5.264;2023-04-19T07:42:43;102689.00000000001;;;11.74;43.34
67430;BME280;54298;52.076;5.264;2023-04-19T07:44:19;102688.00000000001;;;11.58;43.72
67430;BME280;54298;52.076;5.264;2023-04-19T07:45:55;102692.0;;;11.75;43.4
67430;BME280;54298;52.076;5.264;2023-04-19T07:49:07;102689.00000000001;;;11.66;43.91
67430;BME280;54298;52.076;5.264;2023-04-19T07:50:43;102686.99999999999;;;11.61;43.57
67430;BME280;54298;52.076;5.264;2023-04-19T07:52:19;102698.0;;;11.76;43.47
67430;BME280;54298;52.076;5.264;2023-04-19T07:55:32;102696.0;;;11.68;42.47
67430;BME280;54298;52.076;5.264;2023-04-19T07:57:08;102690.00000000001;;;11.69;41.93
67430;BME280;54298;52.076;5.264;2023-04-19T07:58:44;102692.0;;;11.76;42.12
67430;BME280;54298;52.076;5.264;2023-04-19T08:01:56;102692.0;;;11.66;41.69
67430;BME280;54298;52.076;5.264;2023-04-19T08:03:33;102690.00000000001;;;11.57;42.51
67430;BME280;54298;52.076;5.264;2023-04-19T08:05:09;102692.0;;;11.61;42.43
67430;BME280;54298;52.076;5.264;2023-04-19T08:06:46;102695.0;;;11.6;42.04
67430;BME280;54298;52.076;5.264;2023-04-19T08:09:59;102693.0;;;11.87;42.63
67430;BME280;54298;52.076;5.264;2023-04-19T08:11:35;102697.0;;;11.74;41.84
67430;BME280;54298;52.076;5.264;2023-04-19T08:13:11;102698.0;;;11.74;42.29
67430;BME280;54298;52.076;5.264;2023-04-19T08:16:23;102702.0;;;11.75;42.82
67430;BME280;54298;52.076;5.264;2023-04-19T08:17:59;102692.0;;;11.76;41.86
67430;BME280;54298;52.076;5.264;2023-04-19T08:19:36;102696.0;;;11.79;42.48
67430;BME280;54298;52.076;5.264;2023-04-19T08:22:48;102693.0;;;11.84;41.88
67430;BME280;54298;52.076;5.264;2023-04-19T08:24:24;102690.00000000001;;;12.05;41.38
67430;BME280;54298;52.076;5.264;2023-04-19T08:26:00;102692.0;;;12.14;41.4
67430;BME280;54298;52.076;5.264;2023-04-19T08:27:36;102684.99999999999;;;12.29;41.41
67430;BME280;54298;52.076;5.264;2023-04-19T08:30:48;102683.99999999999;;;12.21;41.33
67430;BME280;54298;52.076;5.264;2023-04-19T08:32:25;102682.0;;;12.01;41.82
67430;BME280;54298;52.076;5.264;2023-04-19T08:34:01;102683.0;;;12.17;41.06
67430;BME280;54298;52.076;5.264;2023-04-19T08:37:14;102678.0;;;11.99;40.76
67430;BME280;54298;52.076;5.264;2023-04-19T08:38:50;102692.0;;;11.9;41.64
67430;BME280;54298;52.076;5.264;2023-04-19T08:40:28;102683.0;;;12.18;41.15
67430;BME280;54298;52.076;5.264;2023-04-19T08:43:44;102688.00000000001;;;12.18;40.58
67430;BME280;54298;52.076;5.264;2023-04-19T08:45:25;102691.00000000001;;;12.17;39.6
67430;BME280;54298;52.076;5.264;2023-04-19T08:47:02;102677.0;;;12.2;39.83
67430;BME280;54298;52.076;5.264;2023-04-19T08:48:39;102683.0;;;12.2;39.76
67430;BME280;54298;52.076;5.264;2023-04-19T08:51:57;102691.00000000001;;;12.3;40.4
67430;BME280;54298;52.076;5.264;2023-04-19T08:53:33;102683.99999999999;;;12.05;40.18
67430;BME280;54298;52.076;5.264;2023-04-19T08:55:09;102674.0;;;12.23;40.6
67430;BME280;54298;52.076;5.264;2023-04-19T08:58:22;102674.0;;;12.34;40.04
67430;BME280;54298;52.076;5.264;2023-04-19T08:59:59;102670.0;;;12.5;39.71
67430;BME280;54298;52.076;5.264;2023-04-19T09:01:35;102670.0;;;12.64;39.78
67430;BME280;54298;52.076;5.264;2023-04-19T09:03:11;102664.00000000001;;;12.6;38.83
67430;BME280;54298;52.076;5.264;2023-04-19T09:06:23;102678.0;;;12.65;40.1
67430;BME280;54298;52.076;5.264;2023-04-19T09:08:20;102658.99999999999;;;12.66;39.01
67430;BME280;54298;52.076;5.264;2023-04-19T09:10:04;102668.0;;;12.57;38.49
67430;BME280;54298;52.076;5.264;2023-04-19T09:11:41;102676.0;;;12.47;38.96
67430;BME280;54298;52.076;5.264;2023-04-19T09:14:53;102658.99999999999;;;12.54;38.35
67430;BME280;54298;52.076;5.264;2023-04-19T09:16:29;102667.0;;;12.71;39.17
67430;BME280;54298;52.076;5.264;2023-04-19T09:18:07;102673.0;;;12.86;37.96
67430;BME280;54298;52.076;5.264;2023-04-19T09:21:29;102665.00000000001;;;12.81;36.83
67430;BME280;54298;52.076;5.264;2023-04-19T09:23:07;102665.00000000001;;;12.78;35.71
67430;BME280;54298;52.076;5.264;2023-04-19T09:24:45;102658.0;;;13.0;36.28
67430;BME280;54298;52.076;5.264;2023-04-19T09:26:21;102659.99999999999;;;12.92;35.25
67430;BME280;54298;52.076;5.264;2023-04-19T09:29:51;102665.00000000001;;;12.96;35.93
67430;BME280;54298;52.076;5.264;2023-04-19T09:31:29;102661.99999999999;;;13.04;36.53
67430;BME280;54298;52.076;5.264;2023-04-19T09:33:07;102657.0;;;13.2;36.17
67430;BME280;54298;52.076;5.264;2023-04-19T09:38:04;102663.00000000001;;;12.96;36.01
67430;BME280;54298;52.076;5.264;2023-04-19T09:39:41;102659.99999999999;;;13.04;35.17
67430;BME280;54298;52.076;5.264;2023-04-19T09:41:17;102658.0;;;12.98;35.1
67430;BME280;54298;52.076;5.264;2023-04-19T09:42:53;102652.0;;;13.08;35.5
67430;BME280;54298;52.076;5.264;2023-04-19T09:46:05;102658.0;;;13.09;36.17
67430;BME280;54298;52.076;5.264;2023-04-19T09:47:41;102668.0;;;13.15;35.42
67430;BME280;54298;52.076;5.264;2023-04-19T09:49:19;102657.0;;;13.13;33.92
67430;BME280;54298;52.076;5.264;2023-04-19T09:52:35;102666.00000000001;;;13.02;34.07
67430;BME280;54298;52.076;5.264;2023-04-19T09:54:13;102659.99999999999;;;13.06;35.39
67430;BME280;54298;52.076;5.264;2023-04-19T09:55:50;102657.0;;;13.13;35.61
67430;BME280;54298;52.076;5.264;2023-04-19T09:59:04;102651.0;;;13.18;35.72
67430;BME280;54298;52.076;5.264;2023-04-19T10:00:43;102651.0;;;13.31;35.65
67430;BME280;54298;52.076;5.264;2023-04-19T10:02:21;102663.00000000001;;;13.11;36.46
67430;BME280;54298;52.076;5.264;2023-04-19T10:03:58;102655.0;;;13.24;35.79
67430;BME280;54298;52.076;5.264;2023-04-19T10:07:13;102667.0;;;13.34;35.37
67430;BME280;54298;52.076;5.264;2023-04-19T10:08:52;102658.99999999999;;;13.27;36.08
67430;BME280;54298;52.076;5.264;2023-04-19T10:10:30;102648.0;;;13.4;35.89
67430;BME280;54298;52.076;5.264;2023-04-19T10:13:44;102657.0;;;13.54;36.17
67430;BME280;54298;52.076;5.264;2023-04-19T10:15:23;102654.0;;;13.73;36.1
67430;BME280;54298;52.076;5.264;2023-04-19T10:17:00;102645.0;;;13.77;35.51
67430;BME280;54298;52.076;5.264;2023-04-19T10:18:37;102647.0;;;13.79;35.24
67430;BME280;54298;52.076;5.264;2023-04-19T10:21:57;102642.0;;;13.76;35.12
67430;BME280;54298;52.076;5.264;2023-04-19T10:23:33;102642.0;;;13.59;35.67
67430;BME280;54298;52.076;5.264;2023-04-19T10:25:10;102641.00000000001;;;13.45;34.14
67430;BME280;54298;52.076;5.264;2023-04-19T10:27:23;102642.0;;;13.46;34.35
67430;BME280;54298;52.076;5.264;2023-04-19T10:29:00;102636.99999999999;;;13.55;34.71
67430;BME280;54298;52.076;5.264;2023-04-19T10:32:28;102630.0;;;13.66;35.18
67430;BME280;54298;52.076;5.264;2023-04-19T10:34:12;102636.99999999999;;;13.76;36.01
67430;BME280;54298;52.076;5.264;2023-04-19T10:35:49;102627.0;;;13.8;35.46
67430;BME280;54298;52.076;5.264;2023-04-19T10:37:25;102631.0;;;13.8;36.24
67430;BME280;54298;52.076;5.264;2023-04-19T10:40:54;102634.99999999999;;;13.84;35.72
67430;BME280;54298;52.076;5.264;2023-04-19T10:43:37;102632.0;;;13.79;34.92
67430;BME280;54298;52.076;5.264;2023-04-19T10:45:45;102623.0;;;13.77;34.56